createdAt,value
2022-12-17T00:02:41.889Z,-9.42
2022-12-17T00:05:27.558Z,-9.56
2022-12-17T00:08:17.617Z,-9.72
2022-12-17T00:11:03.038Z,-9.81
2022-12-17T00:13:48.546Z,-9.79
2022-12-17T00:16:34.930Z,-9.74
2022-12-17T00:19:20.214Z,-9.70
2022-12-17T00:22:05.367Z,-9.75
2022-12-17T00:24:50.255Z,-9.75
2022-12-17T00:27:35.226Z,-9.71
2022-12-17T00:30:20.707Z,-9.65
2022-12-17T00:33:06.111Z,-9.64
2022-12-17T00:35:51.217Z,-9.62
2022-12-17T00:38:37.637Z,-9.59
2022-12-17T00:41:23.032Z,-9.60
2022-12-17T00:44:08.332Z,-9.58
2022-12-17T00:46:53.524Z,-9.56
2022-12-17T00:49:38.656Z,-9.56
2022-12-17T00:52:24.369Z,-9.52
2022-12-17T00:55:09.799Z,-9.48
2022-12-17T00:57:55.258Z,-9.46
2022-12-17T01:00:42.102Z,-9.45
2022-12-17T01:03:30.366Z,-9.46
2022-12-17T01:06:19.567Z,-9.51
2022-12-17T01:09:05.431Z,-9.54
2022-12-17T01:11:50.615Z,-9.56
2022-12-17T01:14:37.346Z,-9.56
2022-12-17T01:17:39.167Z,-9.56
2022-12-17T01:20:25.118Z,-9.64
2022-12-17T01:23:10.711Z,-9.70
2022-12-17T01:25:56.382Z,-9.74
2022-12-17T01:28:42.731Z,-9.86
2022-12-17T01:31:34.667Z,-9.97
2022-12-17T01:34:20.837Z,-10.08
2022-12-17T01:37:07.673Z,-10.16
2022-12-17T01:39:53.003Z,-10.22
2022-12-17T01:42:38.117Z,-10.25
2022-12-17T01:45:24.263Z,-10.20
2022-12-17T01:48:13.630Z,-10.16
2022-12-17T01:51:08.497Z,-10.17
2022-12-17T01:54:00.011Z,-10.14
2022-12-17T01:56:45.295Z,-10.10
2022-12-17T01:59:31.492Z,-10.07
2022-12-17T02:02:17.086Z,-10.02
2022-12-17T02:05:02.681Z,-9.97
2022-12-17T02:08:00.171Z,-9.92
2022-12-17T02:10:59.646Z,-9.90
2022-12-17T02:13:50.842Z,-9.88
2022-12-17T02:16:43.948Z,-9.85
2022-12-17T02:20:00.363Z,-9.81
2022-12-17T02:23:23.990Z,-9.78
2022-12-17T02:26:19.451Z,-9.76
2022-12-17T02:29:08.351Z,-9.74
2022-12-17T02:31:59.112Z,-9.70
2022-12-17T02:34:44.523Z,-9.70
2022-12-17T02:37:29.508Z,-9.68
2022-12-17T02:40:14.871Z,-9.71
2022-12-17T02:43:01.609Z,-9.69
2022-12-17T02:45:46.813Z,-9.68
2022-12-17T02:48:32.039Z,-9.71
2022-12-17T02:51:17.726Z,-9.73
2022-12-17T02:54:04.643Z,-9.75
2022-12-17T02:56:49.920Z,-9.76
2022-12-17T02:59:34.938Z,-9.80
2022-12-17T03:02:20.520Z,-9.82
2022-12-17T03:05:27.593Z,-9.82
2022-12-17T03:08:11.278Z,-9.80
2022-12-17T03:10:56.626Z,-9.83
2022-12-17T03:13:46.488Z,-9.85
2022-12-17T03:16:37.407Z,-9.82
2022-12-17T03:19:23.397Z,-9.79
2022-12-17T03:22:08.511Z,-9.73
2022-12-17T03:24:53.807Z,-9.65
2022-12-17T03:27:38.893Z,-9.61
2022-12-17T03:30:24.712Z,-9.57
2022-12-17T03:33:10.147Z,-9.52
2022-12-17T03:35:55.447Z,-9.50
2022-12-17T03:38:40.904Z,-9.52
2022-12-17T03:41:26.382Z,-9.52
2022-12-17T03:44:11.577Z,-9.50
2022-12-17T03:46:56.478Z,-9.48
2022-12-17T03:49:41.788Z,-9.46
2022-12-17T03:52:27.190Z,-9.41
2022-12-17T03:55:12.394Z,-9.33
2022-12-17T03:58:02.026Z,-9.26
2022-12-17T04:00:46.896Z,-9.20
2022-12-17T04:03:32.243Z,-9.17
2022-12-17T04:06:17.238Z,-9.13
2022-12-17T04:09:02.409Z,-9.10
2022-12-17T04:11:47.653Z,-9.05
2022-12-17T04:14:32.752Z,-8.99
2022-12-17T04:17:18.086Z,-8.95
2022-12-17T04:20:03.051Z,-8.90
2022-12-17T04:22:48.383Z,-8.84
2022-12-17T04:25:33.562Z,-8.76
2022-12-17T04:28:19.058Z,-8.69
2022-12-17T04:31:04.170Z,-8.67
2022-12-17T04:33:49.594Z,-8.63
2022-12-17T04:36:34.649Z,-8.61
2022-12-17T04:39:20.067Z,-8.63
2022-12-17T04:42:05.368Z,-8.64
2022-12-17T04:44:51.490Z,-8.68
2022-12-17T04:47:36.507Z,-8.69
2022-12-17T04:50:21.962Z,-8.69
2022-12-17T04:53:07.165Z,-8.67
2022-12-17T04:55:52.386Z,-8.63
2022-12-17T04:58:37.894Z,-8.57
2022-12-17T05:01:23.085Z,-8.53
2022-12-17T05:04:08.102Z,-8.49
2022-12-17T05:06:53.498Z,-8.46
2022-12-17T05:09:38.635Z,-8.42
2022-12-17T05:12:24.052Z,-8.39
2022-12-17T05:15:09.164Z,-8.39
2022-12-17T05:17:55.471Z,-8.35
2022-12-17T05:20:40.540Z,-8.29
2022-12-17T05:23:27.331Z,-8.23
2022-12-17T05:26:38.950Z,-8.17
2022-12-17T05:29:24.611Z,-8.13
2022-12-17T05:32:09.858Z,-8.11
2022-12-17T05:34:55.395Z,-8.11
2022-12-17T05:37:42.494Z,-8.08
2022-12-17T05:40:28.371Z,-8.07
2022-12-17T05:43:19.463Z,-8.03
2022-12-17T05:46:05.227Z,-7.98
2022-12-17T05:48:53.231Z,-7.93
2022-12-17T05:51:39.361Z,-7.83
2022-12-17T05:54:25.580Z,-7.71
2022-12-17T05:57:11.602Z,-7.58
2022-12-17T05:59:56.980Z,-7.46
2022-12-17T06:02:42.555Z,-7.32
2022-12-17T06:05:27.783Z,-7.21
2022-12-17T06:08:20.339Z,-7.08
2022-12-17T06:11:05.726Z,-6.91
2022-12-17T06:13:50.786Z,-6.77
2022-12-17T06:16:36.514Z,-6.60
2022-12-17T06:19:21.935Z,-6.44
2022-12-17T06:22:12.038Z,-6.32
2022-12-17T06:25:01.989Z,-6.20
2022-12-17T06:27:50.412Z,-6.08
2022-12-17T06:30:35.951Z,-5.95
2022-12-17T06:33:29.648Z,-5.83
2022-12-17T06:36:21.988Z,-5.72
2022-12-17T06:39:08.263Z,-5.65
2022-12-17T06:42:00.485Z,-5.56
2022-12-17T06:44:51.959Z,-5.50
2022-12-17T06:47:38.461Z,-5.46
2022-12-17T06:50:27.005Z,-5.42
2022-12-17T06:53:25.942Z,-5.34
2022-12-17T06:56:11.553Z,-5.30
2022-12-17T06:58:56.934Z,-5.25
2022-12-17T07:01:42.722Z,-5.22
2022-12-17T07:04:31.498Z,-5.21
2022-12-17T07:07:16.922Z,-5.22
2022-12-17T07:10:02.386Z,-5.25
2022-12-17T07:12:47.907Z,-5.29
2022-12-17T07:15:37.611Z,-5.34
2022-12-17T07:18:23.142Z,-5.41
2022-12-17T07:21:12.533Z,-5.46
2022-12-17T07:23:57.836Z,-5.51
2022-12-17T07:26:43.086Z,-5.55
2022-12-17T07:29:28.585Z,-5.59
2022-12-17T07:32:13.498Z,-5.64
2022-12-17T07:35:01.573Z,-5.66
2022-12-17T07:37:46.939Z,-5.69
2022-12-17T07:40:32.124Z,-5.73
2022-12-17T07:43:17.232Z,-5.73
2022-12-17T07:46:02.469Z,-5.75
2022-12-17T07:48:47.911Z,-5.77
2022-12-17T07:51:33.205Z,-5.78
2022-12-17T07:54:20.985Z,-5.77
2022-12-17T07:57:06.054Z,-5.75
2022-12-17T07:59:51.399Z,-5.71
2022-12-17T08:02:36.790Z,-5.67
2022-12-17T08:05:22.327Z,-5.67
2022-12-17T08:08:07.401Z,-5.64
2022-12-17T08:10:52.746Z,-5.62
2022-12-17T08:13:38.928Z,-5.64
2022-12-17T08:16:24.955Z,-5.60
2022-12-17T08:19:10.336Z,-5.57
2022-12-17T08:21:55.282Z,-5.56
2022-12-17T08:24:43.225Z,-5.53
2022-12-17T08:27:29.032Z,-5.53
2022-12-17T08:30:14.576Z,-5.48
2022-12-17T08:32:59.572Z,-5.43
2022-12-17T08:35:45.237Z,-5.35
2022-12-17T08:38:30.834Z,-5.24
2022-12-17T08:41:19.326Z,-5.16
2022-12-17T08:44:04.535Z,-5.05
2022-12-17T08:46:50.036Z,-4.94
2022-12-17T08:49:34.855Z,-4.85
2022-12-17T08:52:20.516Z,-4.73
2022-12-17T08:55:05.966Z,-4.61
2022-12-17T08:57:50.910Z,-4.48
2022-12-17T09:00:36.527Z,-4.39
2022-12-17T09:03:22.321Z,-4.30
2022-12-17T09:06:07.720Z,-4.24
2022-12-17T09:08:52.762Z,-4.18
2022-12-17T09:11:38.314Z,-4.15
2022-12-17T09:14:25.654Z,-4.05
2022-12-17T09:17:12.068Z,-3.99
2022-12-17T09:19:57.747Z,-3.92
2022-12-17T09:22:43.227Z,-3.85
2022-12-17T09:25:31.159Z,-3.79
2022-12-17T09:28:20.273Z,-3.72
2022-12-17T09:31:06.374Z,-3.66
2022-12-17T09:33:55.110Z,-3.62
2022-12-17T09:36:50.893Z,-3.57
2022-12-17T09:39:36.407Z,-3.54
2022-12-17T09:43:17.376Z,-3.48
2022-12-17T09:46:29.331Z,-3.44
2022-12-17T09:49:22.614Z,-3.41
2022-12-17T09:52:07.939Z,-3.37
2022-12-17T09:55:02.247Z,-3.34
2022-12-17T09:57:54.593Z,-3.30
2022-12-17T10:00:45.527Z,-3.25
2022-12-17T10:03:39.399Z,-3.22
2022-12-17T10:06:42.799Z,-3.18
2022-12-17T10:09:36.847Z,-3.14
2022-12-17T10:12:32.304Z,-3.09
2022-12-17T10:15:17.498Z,-3.06
2022-12-17T10:18:03.265Z,-3.03
2022-12-17T10:20:57.732Z,-2.98
2022-12-17T10:23:48.295Z,-2.95
2022-12-17T10:26:42.794Z,-2.92
2022-12-17T10:29:47.329Z,-2.89
2022-12-17T10:32:33.842Z,-2.84
2022-12-17T10:35:37.476Z,-2.82
2022-12-17T10:38:42.515Z,-2.79
2022-12-17T10:41:48.400Z,-2.77
2022-12-17T10:44:45.213Z,-2.74
2022-12-17T10:47:32.906Z,-2.73
2022-12-17T10:50:20.912Z,-2.71
2022-12-17T10:53:07.962Z,-2.68
2022-12-17T10:55:54.872Z,-2.64
2022-12-17T10:58:43.636Z,-2.63
2022-12-17T11:01:36.682Z,-2.62
2022-12-17T11:04:21.910Z,-2.61
2022-12-17T11:07:09.798Z,-2.61
2022-12-17T11:10:09.172Z,-2.59
2022-12-17T11:12:57.749Z,-2.61
2022-12-17T11:16:20.201Z,-2.62
2022-12-17T11:19:17.809Z,-2.63
2022-12-17T11:22:07.795Z,-2.64
2022-12-17T11:25:04.800Z,-2.64
2022-12-17T11:28:01.506Z,-2.65
2022-12-17T11:30:47.609Z,-2.65
2022-12-17T11:33:40.456Z,-2.65
2022-12-17T11:36:48.294Z,-2.62
2022-12-17T11:39:44.034Z,-2.60
2022-12-17T11:42:52.257Z,-2.57
2022-12-17T11:45:54.274Z,-2.55
2022-12-17T11:48:39.767Z,-2.52
2022-12-17T11:51:41.673Z,-2.49
2022-12-17T11:54:50.193Z,-2.47
2022-12-17T11:58:09.549Z,-2.42
2022-12-17T12:01:17.844Z,-2.40
2022-12-17T12:04:19.215Z,-2.37
2022-12-17T12:07:25.650Z,-2.36
2022-12-17T12:10:28.517Z,-2.38
2022-12-17T12:13:13.942Z,-2.36
2022-12-17T12:16:14.984Z,-2.34
2022-12-17T12:19:24.820Z,-2.30
2022-12-17T12:22:30.483Z,-2.26
2022-12-17T12:25:38.828Z,-2.23
2022-12-17T12:28:38.613Z,-2.20
2022-12-17T12:31:52.995Z,-2.16
2022-12-17T12:34:45.908Z,-2.09
2022-12-17T12:37:34.013Z,-2.06
2022-12-17T12:40:39.586Z,-1.99
2022-12-17T12:43:36.528Z,-1.97
2022-12-17T12:46:33.094Z,-1.93
2022-12-17T12:49:48.178Z,-1.89
2022-12-17T12:52:39.791Z,-1.85
2022-12-17T12:55:25.516Z,-1.82
2022-12-17T12:58:20.648Z,-1.77
2022-12-17T13:01:05.666Z,-1.72
2022-12-17T13:03:54.682Z,-1.69
2022-12-17T13:06:42.167Z,-1.64
2022-12-17T13:09:18.183Z,-1.62
2022-12-17T13:11:59.839Z,-1.60
2022-12-17T13:14:31.946Z,-1.59
2022-12-17T13:17:05.928Z,-1.60
2022-12-17T13:19:41.613Z,-1.58
2022-12-17T13:22:23.651Z,-1.58
2022-12-17T13:24:53.654Z,-1.56
2022-12-17T13:27:35.243Z,-1.57
2022-12-17T13:30:37.847Z,-1.56
2022-12-17T13:33:41.814Z,-1.55
2022-12-17T13:36:29.926Z,-1.53
2022-12-17T13:39:24.416Z,-1.52
2022-12-17T13:41:58.190Z,-1.50
2022-12-17T13:44:36.233Z,-1.49
2022-12-17T13:47:04.029Z,-1.49
2022-12-17T13:49:31.965Z,-1.49
2022-12-17T13:52:17.114Z,-1.48
2022-12-17T13:54:43.967Z,-1.51
2022-12-17T13:57:23.162Z,-1.53
2022-12-17T13:59:54.913Z,-1.52
2022-12-17T14:02:32.817Z,-1.53
2022-12-17T14:05:07.408Z,-1.54
2022-12-17T14:07:39.090Z,-1.55
2022-12-17T14:10:16.379Z,-1.56
2022-12-17T14:12:46.971Z,-1.61
2022-12-17T14:15:25.740Z,-1.57
2022-12-17T14:17:54.175Z,-1.59
2022-12-17T14:20:25.771Z,-1.59
2022-12-17T14:23:00.659Z,-1.60
2022-12-17T14:25:31.130Z,-1.61
2022-12-17T14:28:03.875Z,-1.62
2022-12-17T14:30:33.287Z,-1.62
2022-12-17T14:33:00.081Z,-1.63
2022-12-17T14:35:29.897Z,-1.64
2022-12-17T14:37:57.385Z,-1.66
2022-12-17T14:40:25.379Z,-1.69
2022-12-17T14:42:57.646Z,-1.70
2022-12-17T14:45:27.102Z,-1.72
2022-12-17T14:47:56.942Z,-1.75
2022-12-17T14:50:33.871Z,-1.76
2022-12-17T14:53:03.434Z,-1.80
2022-12-17T14:55:31.977Z,-1.81
2022-12-17T14:58:27.829Z,-1.83
2022-12-17T15:01:11.196Z,-1.85
2022-12-17T15:03:41.086Z,-1.86
2022-12-17T15:06:10.438Z,-1.88
2022-12-17T15:08:41.657Z,-1.91
2022-12-17T15:11:10.399Z,-1.93
2022-12-17T15:13:37.074Z,-1.95
2022-12-17T15:16:03.977Z,-1.98
2022-12-17T15:18:30.659Z,-2.01
2022-12-17T15:20:57.482Z,-2.01
2022-12-17T15:23:25.261Z,-2.04
2022-12-17T15:25:54.357Z,-2.08
2022-12-17T15:28:22.187Z,-2.09
2022-12-17T15:30:49.873Z,-2.12
2022-12-17T15:33:16.986Z,-2.15
2022-12-17T15:35:43.807Z,-2.16
2022-12-17T15:38:11.750Z,-2.17
2022-12-17T15:40:39.102Z,-2.17
2022-12-17T15:43:13.066Z,-2.19
2022-12-17T15:45:47.628Z,-2.19
2022-12-17T15:48:25.488Z,-2.30
2022-12-17T15:50:52.083Z,-2.21
2022-12-17T15:53:25.342Z,-2.24
2022-12-17T15:56:00.298Z,-2.25
2022-12-17T15:58:27.382Z,-2.27
2022-12-17T16:00:54.056Z,-2.29
2022-12-17T16:03:21.902Z,-2.30
2022-12-17T16:05:48.771Z,-2.34
2022-12-17T16:08:15.726Z,-2.35
2022-12-17T16:10:42.442Z,-2.38
2022-12-17T16:13:09.045Z,-2.39
2022-12-17T16:15:36.285Z,-2.40
2022-12-17T16:18:03.217Z,-2.39
2022-12-17T16:20:30.038Z,-2.41
2022-12-17T16:22:56.771Z,-2.42
2022-12-17T16:25:23.662Z,-2.42
2022-12-17T16:27:50.279Z,-2.42
2022-12-17T16:30:17.115Z,-2.44
2022-12-17T16:32:44.685Z,-2.47
2022-12-17T16:35:11.909Z,-2.50
2022-12-17T16:37:38.566Z,-2.51
2022-12-17T16:40:05.921Z,-2.51
2022-12-17T16:42:32.615Z,-2.52
2022-12-17T16:44:59.495Z,-2.54
2022-12-17T16:47:26.178Z,-2.55
2022-12-17T16:49:52.855Z,-2.55
2022-12-17T16:52:19.593Z,-2.54
2022-12-17T16:54:46.270Z,-2.55
2022-12-17T16:57:15.978Z,-2.59
2022-12-17T16:59:42.979Z,-2.58
2022-12-17T17:02:14.035Z,-2.61
2022-12-17T17:04:40.937Z,-2.63
2022-12-17T17:07:10.493Z,-2.63
2022-12-17T17:09:37.944Z,-2.63
2022-12-17T17:12:05.348Z,-2.68
2022-12-17T17:14:32.023Z,-2.68
2022-12-17T17:17:05.616Z,-2.71
2022-12-17T17:19:32.525Z,-2.74
2022-12-17T17:21:59.319Z,-2.75
2022-12-17T17:24:35.786Z,-2.74
2022-12-17T17:27:02.771Z,-2.71
2022-12-17T17:29:29.679Z,-2.70
2022-12-17T17:32:13.413Z,-2.66
2022-12-17T17:34:40.880Z,-2.65
2022-12-17T17:37:07.671Z,-2.61
2022-12-17T17:39:34.701Z,-2.59
2022-12-17T17:42:01.802Z,-2.56
2022-12-17T17:44:32.283Z,-2.56
2022-12-17T17:46:59.151Z,-2.53
2022-12-17T17:49:31.915Z,-2.51
2022-12-17T17:52:14.129Z,-2.49
2022-12-17T17:54:41.067Z,-2.46
2022-12-17T17:57:09.084Z,-2.44
2022-12-17T17:59:35.985Z,-2.43
2022-12-17T18:02:09.733Z,-2.41
2022-12-17T18:04:36.564Z,-2.38
2022-12-17T18:09:54.534Z,-2.39
2022-12-17T18:12:40.438Z,-2.35
2022-12-17T18:15:16.849Z,-2.30
2022-12-17T18:17:53.956Z,-2.33
2022-12-17T18:20:22.028Z,-2.39
2022-12-17T18:22:53.566Z,-2.30
2022-12-17T18:25:20.984Z,-2.24
2022-12-17T18:27:47.912Z,-2.22
2022-12-17T18:30:16.574Z,-2.21
2022-12-17T18:32:43.335Z,-2.19
2022-12-17T18:35:10.181Z,-2.18
2022-12-17T18:37:40.318Z,-2.16
2022-12-17T18:40:08.358Z,-2.15
2022-12-17T18:43:14.251Z,-2.15
2022-12-17T18:45:42.113Z,-2.14
2022-12-17T18:48:13.667Z,-2.11
2022-12-17T18:50:42.717Z,-2.10
2022-12-17T18:53:09.350Z,-2.08
2022-12-17T18:55:40.685Z,-2.08
2022-12-17T18:58:09.155Z,-2.05
2022-12-17T19:00:38.092Z,-2.05
2022-12-17T19:03:06.041Z,-2.04
2022-12-17T19:05:33.077Z,-2.03
2022-12-17T19:07:59.777Z,-2.03
2022-12-17T19:10:26.452Z,-2.02
2022-12-17T19:12:53.119Z,-2.00
2022-12-17T19:15:19.786Z,-1.99
2022-12-17T19:17:50.852Z,-1.96
2022-12-17T19:20:17.902Z,-1.95
2022-12-17T19:22:44.506Z,-1.97
2022-12-17T19:25:11.371Z,-1.95
2022-12-17T19:27:38.059Z,-1.93
2022-12-17T19:30:05.399Z,-1.91
2022-12-17T19:32:32.250Z,-1.92
2022-12-17T19:34:58.908Z,-1.92
2022-12-17T19:37:25.567Z,-1.91
2022-12-17T19:39:52.161Z,-1.91
2022-12-17T19:42:25.242Z,-1.89
2022-12-17T19:44:54.543Z,-1.88
2022-12-17T19:47:23.633Z,-1.89
2022-12-17T19:49:50.399Z,-1.89
2022-12-17T19:52:17.107Z,-1.87
2022-12-17T19:54:43.767Z,-1.87
2022-12-17T19:57:10.508Z,-1.85
2022-12-17T19:59:38.293Z,-1.82
2022-12-17T20:02:07.537Z,-1.80
2022-12-17T20:04:34.374Z,-1.80
2022-12-17T20:07:01.173Z,-1.80
2022-12-17T20:09:27.891Z,-1.79
2022-12-17T20:11:54.666Z,-1.80
2022-12-17T20:14:26.458Z,-1.80
2022-12-17T20:16:59.621Z,-1.80
2022-12-17T20:19:31.165Z,-1.78
2022-12-17T20:22:03.014Z,-1.77
2022-12-17T20:24:32.010Z,-1.78
2022-12-17T20:26:59.591Z,-1.79
2022-12-17T20:29:26.290Z,-1.80
2022-12-17T20:31:57.303Z,-1.81
2022-12-17T20:34:25.015Z,-1.81
2022-12-17T20:36:52.354Z,-1.80
2022-12-17T20:39:25.980Z,-1.81
2022-12-17T20:41:58.372Z,-1.80
2022-12-17T20:44:25.418Z,-1.79
2022-12-17T20:46:52.335Z,-1.80
2022-12-17T20:49:25.326Z,-1.80
2022-12-17T20:51:52.021Z,-1.79
2022-12-17T20:54:18.850Z,-1.79
2022-12-17T20:56:45.720Z,-1.79
2022-12-17T20:59:16.082Z,-1.78
2022-12-17T21:01:45.092Z,-1.77
2022-12-17T21:04:14.055Z,-1.77
2022-12-17T21:06:45.998Z,-1.74
2022-12-17T21:09:17.129Z,-1.73
2022-12-17T21:11:44.011Z,-1.71
2022-12-17T21:14:13.792Z,-1.69
2022-12-17T21:16:41.442Z,-1.69
2022-12-17T21:19:12.679Z,-1.68
2022-12-17T21:21:39.838Z,-1.67
2022-12-17T21:24:08.412Z,-1.66
2022-12-17T21:26:37.606Z,-1.67
2022-12-17T21:29:06.213Z,-1.63
2022-12-17T21:31:34.221Z,-1.60
2022-12-17T21:34:06.055Z,-1.60
2022-12-17T21:36:34.127Z,-1.59
2022-12-17T21:39:01.547Z,-1.60
2022-12-17T21:41:38.482Z,-1.57
2022-12-17T21:44:11.207Z,-1.57
2022-12-17T21:46:38.621Z,-1.55
2022-12-17T21:49:09.236Z,-1.56
2022-12-17T21:51:36.415Z,-1.55
2022-12-17T21:54:08.156Z,-1.55
2022-12-17T21:56:38.743Z,-1.54
2022-12-17T21:59:08.339Z,-1.54
2022-12-17T22:01:35.057Z,-1.54
2022-12-17T22:04:04.445Z,-1.53
2022-12-17T22:06:36.062Z,-1.52
2022-12-17T22:09:16.866Z,-1.54
2022-12-17T22:12:17.870Z,-1.53
2022-12-17T22:14:45.011Z,-1.52
2022-12-17T22:17:11.705Z,-1.52
2022-12-17T22:19:38.551Z,-1.49
2022-12-17T22:22:08.628Z,-1.50
2022-12-17T22:24:36.726Z,-1.48
2022-12-17T22:27:04.253Z,-1.45
2022-12-17T22:29:54.332Z,-1.45
2022-12-17T22:32:39.831Z,-1.47
2022-12-17T22:36:45.481Z,-1.44
2022-12-17T22:39:51.478Z,-1.42
2022-12-17T22:44:31.159Z,-1.41
2022-12-17T22:44:44.078Z,-1.39
2022-12-17T22:46:17.508Z,-1.38
2022-12-17T22:48:44.922Z,-1.36
2022-12-17T22:51:24.575Z,-1.33
2022-12-17T22:54:04.894Z,-1.31
2022-12-17T22:56:51.108Z,-1.30
2022-12-17T22:59:19.858Z,-1.27
2022-12-17T23:01:46.843Z,-1.26
2022-12-17T23:04:15.916Z,-1.23
2022-12-17T23:06:49.039Z,-1.22
2022-12-17T23:09:19.619Z,-1.18
2022-12-17T23:11:48.307Z,-1.16
2022-12-17T23:14:21.271Z,-1.15
2022-12-17T23:16:53.185Z,-1.11
2022-12-17T23:19:23.236Z,-1.13
2022-12-17T23:21:49.842Z,-1.10
2022-12-17T23:24:25.188Z,-1.09
2022-12-17T23:26:51.832Z,-1.09
2022-12-17T23:29:19.773Z,-1.07
2022-12-17T23:31:47.360Z,-1.04
2022-12-17T23:34:14.327Z,-1.03
2022-12-17T23:36:41.077Z,-1.02
2022-12-17T23:39:07.811Z,-1.00
2022-12-17T23:41:34.854Z,-0.99
2022-12-17T23:44:01.573Z,-0.99
2022-12-17T23:46:29.561Z,-0.97
2022-12-17T23:48:58.874Z,-0.97
2022-12-17T23:51:26.403Z,-0.94
2022-12-17T23:53:53.295Z,-0.92
2022-12-17T23:56:22.731Z,-0.91
2022-12-17T23:58:57.262Z,-0.90
